WXM80 ListenWXM80 Stop

You find our weather info also at:

UK Metoffice

WeatherCloud

Weather Underground

Northeastern Weather Network

AWEKAS

Citizen Weather Observer Program (CWOP)

HAMweather, WeatherForYou, PWS Weather


Weather Underground History page Text

Daily Summary for January 14, 2017 Units:  Both    English   Metric
« Previous Day
Next Day »
Daily Weekly Monthly Yearly Custom
  High: Low: Average:
Temperature: 32.4 °F /  0.2 °C 27.0 °F /  -2.8 °C 29.4 °F /  -1.4 °C
Dew Point: 27.9 °F /  -2.3 °C 14.4 °F /  -9.8 °C 20.1 °F /  -6.6 °C
Humidity: 93 % 48 % 69 %
Wind Speed: 9.0 mph /  14.5 km/h - 2.6 mph /  4.2 km/h
Wind Gust: 16.1 mph /  25.9 km/h - -
Wind:- - ENE
Pressure: 30.69 in /  1039.2 hPa 30.28 in /  1025.3 hPa -
Precipitation: 0.07 in /  1.78 mm    
Historical Graphs
 
 
Tabular Data for January 14, 2017
Time Temperature Dew Point Pressure Wind Wind Speed Wind Gust Humidity Rainfall Rate (Hourly)
00:04 31.0 °F /  -0.6 °C 17.9 °F /  -7.8 °C 30.66 in /  1038.1 hPa NNE 6.2 mph /  10 km/h 13.8 mph /  22.2 km/h 58 % 0.00 in /  0 mm
00:09 31.0 °F /  -0.6 °C 18.3 °F /  -7.6 °C 30.67 in /  1038.5 hPa North 4.9 mph /  7.9 km/h 9.2 mph /  14.8 km/h 59 % 0.00 in /  0 mm
00:14 30.9 °F /  -0.6 °C 18.2 °F /  -7.7 °C 30.66 in /  1038.1 hPa NNE 6.6 mph /  10.6 km/h 10.4 mph /  16.7 km/h 59 % 0.00 in /  0 mm
00:19 30.8 °F /  -0.7 °C 18.5 °F /  -7.5 °C 30.67 in /  1038.5 hPa North 7.7 mph /  12.4 km/h 11.5 mph /  18.5 km/h 60 % 0.00 in /  0 mm
00:24 30.8 °F /  -0.7 °C 18.1 °F /  -7.7 °C 30.67 in /  1038.5 hPa NNE 5.9 mph /  9.5 km/h 9.2 mph /  14.8 km/h 59 % 0.00 in /  0 mm
00:29 30.6 °F /  -0.8 °C 18.3 °F /  -7.6 °C 30.67 in /  1038.5 hPa NE 8.0 mph /  12.9 km/h 12.7 mph /  20.4 km/h 60 % 0.00 in /  0 mm
00:34 30.5 °F /  -0.8 °C 18.3 °F /  -7.6 °C 30.67 in /  1038.5 hPa NNE 6.1 mph /  9.8 km/h 9.2 mph /  14.8 km/h 60 % 0.00 in /  0 mm
00:39 30.4 °F /  -0.9 °C 18.5 °F /  -7.5 °C 30.67 in /  1038.5 hPa NE 8.2 mph /  13.2 km/h 12.0 mph /  19.3 km/h 61 % 0.00 in /  0 mm
00:44 30.3 °F /  -0.9 °C 18.1 °F /  -7.7 °C 30.67 in /  1038.5 hPa NNE 8.4 mph /  13.5 km/h 10.4 mph /  16.7 km/h 60 % 0.00 in /  0 mm
00:49 30.2 °F /  -1 °C 18.0 °F /  -7.8 °C 30.67 in /  1038.5 hPa NNE 6.6 mph /  10.6 km/h 9.2 mph /  14.8 km/h 60 % 0.00 in /  0 mm
00:55 30.2 °F /  -1 °C 18.4 °F /  -7.6 °C 30.67 in /  1038.5 hPa NE 6.2 mph /  10 km/h 9.0 mph /  14.5 km/h 61 % 0.00 in /  0 mm
01:00 30.1 °F /  -1.1 °C 18.6 °F /  -7.4 °C 30.67 in /  1038.5 hPa NE 7.4 mph /  11.9 km/h 11.5 mph /  18.5 km/h 62 % 0.00 in /  0 mm
01:05 30.0 °F /  -1.1 °C 18.5 °F /  -7.5 °C 30.67 in /  1038.5 hPa NNE 7.0 mph /  11.3 km/h 11.5 mph /  18.5 km/h 62 % 0.00 in /  0 mm
01:10 29.9 °F /  -1.2 °C 18.5 °F /  -7.5 °C 30.67 in /  1038.5 hPa NNE 7.5 mph /  12.1 km/h 9.2 mph /  14.8 km/h 62 % 0.00 in /  0 mm
01:15 29.9 °F /  -1.2 °C 18.1 °F /  -7.7 °C 30.67 in /  1038.5 hPa North 6.3 mph /  10.1 km/h 11.5 mph /  18.5 km/h 61 % 0.00 in /  0 mm
01:20 29.8 °F /  -1.2 °C 18.0 °F /  -7.8 °C 30.67 in /  1038.5 hPa North 6.9 mph /  11.1 km/h 16.1 mph /  25.9 km/h 61 % 0.00 in /  0 mm
01:25 29.8 °F /  -1.2 °C 18.0 °F /  -7.8 °C 30.67 in /  1038.5 hPa North 5.4 mph /  8.7 km/h 11.5 mph /  18.5 km/h 61 % 0.00 in /  0 mm
01:30 29.8 °F /  -1.2 °C 18.4 °F /  -7.6 °C 30.67 in /  1038.5 hPa NNE 6.7 mph /  10.8 km/h 9.2 mph /  14.8 km/h 62 % 0.00 in /  0 mm
01:35 29.8 °F /  -1.2 °C 18.7 °F /  -7.4 °C 30.67 in /  1038.5 hPa NNW 4.8 mph /  7.7 km/h 10.4 mph /  16.7 km/h 63 % 0.00 in /  0 mm
01:40 29.7 °F /  -1.3 °C 18.3 °F /  -7.6 °C 30.67 in /  1038.5 hPa NNE 5.5 mph /  8.9 km/h 6.9 mph /  11.1 km/h 62 % 0.00 in /  0 mm
01:45 29.7 °F /  -1.3 °C 18.3 °F /  -7.6 °C 30.68 in /  1038.8 hPa NE 6.0 mph /  9.7 km/h 10.4 mph /  16.7 km/h 62 % 0.00 in /  0 mm
01:50 29.7 °F /  -1.3 °C 17.9 °F /  -7.8 °C 30.68 in /  1038.8 hPa NNE 8.7 mph /  14 km/h 11.5 mph /  18.5 km/h 61 % 0.00 in /  0 mm
01:56 29.6 °F /  -1.3 °C 17.8 °F /  -7.9 °C 30.68 in /  1038.8 hPa North 6.7 mph /  10.8 km/h 11.5 mph /  18.5 km/h 61 % 0.00 in /  0 mm
02:01 29.6 °F /  -1.3 °C 17.8 °F /  -7.9 °C 30.68 in /  1038.8 hPa NNE 6.3 mph /  10.1 km/h 10.4 mph /  16.7 km/h 61 % 0.00 in /  0 mm
02:06 29.5 °F /  -1.4 °C 17.3 °F /  -8.2 °C 30.68 in /  1038.8 hPa NNE 6.1 mph /  9.8 km/h 11.5 mph /  18.5 km/h 60 % 0.00 in /  0 mm
02:11 29.5 °F /  -1.4 °C 17.3 °F /  -8.2 °C 30.68 in /  1038.8 hPa North 5.7 mph /  9.2 km/h 9.2 mph /  14.8 km/h 60 % 0.00 in /  0 mm
02:16 29.5 °F /  -1.4 °C 17.7 °F /  -7.9 °C 30.68 in /  1038.8 hPa NNE 3.9 mph /  6.3 km/h 5.8 mph /  9.3 km/h 61 % 0.00 in /  0 mm
02:21 29.4 °F /  -1.4 °C 18.0 °F /  -7.8 °C 30.68 in /  1038.8 hPa NNE 5.4 mph /  8.7 km/h 8.1 mph /  13 km/h 62 % 0.00 in /  0 mm
02:26 29.4 °F /  -1.4 °C 17.6 °F /  -8 °C 30.68 in /  1038.8 hPa NNE 6.3 mph /  10.1 km/h 11.5 mph /  18.5 km/h 61 % 0.00 in /  0 mm
02:31 29.4 °F /  -1.4 °C 18.0 °F /  -7.8 °C 30.68 in /  1038.8 hPa NE 5.7 mph /  9.2 km/h 12.0 mph /  19.3 km/h 62 % 0.00 in /  0 mm
02:36 29.3 °F /  -1.5 °C 17.5 °F /  -8.1 °C 30.69 in /  1039.2 hPa North 7.7 mph /  12.4 km/h 11.5 mph /  18.5 km/h 61 % 0.00 in /  0 mm
02:41 29.3 °F /  -1.5 °C 17.5 °F /  -8.1 °C 30.68 in /  1038.8 hPa North 5.7 mph /  9.2 km/h 11.0 mph /  17.7 km/h 61 % 0.00 in /  0 mm
02:46 29.2 °F /  -1.6 °C 17.4 °F /  -8.1 °C 30.69 in /  1039.2 hPa NE 6.0 mph /  9.7 km/h 9.2 mph /  14.8 km/h 61 % 0.00 in /  0 mm
02:51 29.2 °F /  -1.6 °C 17.0 °F /  -8.3 °C 30.69 in /  1039.2 hPa NE 9.0 mph /  14.5 km/h 13.0 mph /  20.9 km/h 60 % 0.00 in /  0 mm
02:56 29.1 °F /  -1.6 °C 16.5 °F /  -8.6 °C 30.69 in /  1039.2 hPa NNE 7.0 mph /  11.3 km/h 10.4 mph /  16.7 km/h 59 % 0.00 in /  0 mm
03:01 29.0 °F /  -1.7 °C 16.8 °F /  -8.4 °C 30.68 in /  1038.8 hPa NNE 7.7 mph /  12.4 km/h 11.5 mph /  18.5 km/h 60 % 0.00 in /  0 mm
03:07 29.0 °F /  -1.7 °C 16.8 °F /  -8.4 °C 30.68 in /  1038.8 hPa NNE 6.4 mph /  10.3 km/h 7.0 mph /  11.3 km/h 60 % 0.00 in /  0 mm
03:12 28.9 °F /  -1.7 °C 16.7 °F /  -8.5 °C 30.69 in /  1039.2 hPa NE 7.5 mph /  12.1 km/h 11.5 mph /  18.5 km/h 60 % 0.00 in /  0 mm
03:17 28.9 °F /  -1.7 °C 16.7 °F /  -8.5 °C 30.68 in /  1038.8 hPa NNE 7.9 mph /  12.7 km/h 12.7 mph /  20.4 km/h 60 % 0.00 in /  0 mm
03:22 28.8 °F /  -1.8 °C 16.6 °F /  -8.6 °C 30.68 in /  1038.8 hPa NNE 6.8 mph /  10.9 km/h 8.1 mph /  13 km/h 60 % 0.00 in /  0 mm
03:27 28.8 °F /  -1.8 °C 17.0 °F /  -8.3 °C 30.68 in /  1038.8 hPa NNE 8.0 mph /  12.9 km/h 11.5 mph /  18.5 km/h 61 % 0.00 in /  0 mm
03:32 28.7 °F /  -1.8 °C 16.6 °F /  -8.6 °C 30.68 in /  1038.8 hPa NNE 4.1 mph /  6.6 km/h 6.0 mph /  9.7 km/h 60 % 0.00 in /  0 mm
03:37 28.7 °F /  -1.8 °C 16.9 °F /  -8.4 °C 30.68 in /  1038.8 hPa NNE 4.7 mph /  7.6 km/h 10.4 mph /  16.7 km/h 61 % 0.00 in /  0 mm
03:42 28.7 °F /  -1.8 °C 17.3 °F /  -8.2 °C 30.68 in /  1038.8 hPa NNE 4.3 mph /  6.9 km/h 9.2 mph /  14.8 km/h 62 % 0.00 in /  0 mm
03:47 28.7 °F /  -1.8 °C 16.9 °F /  -8.4 °C 30.68 in /  1038.8 hPa North 4.6 mph /  7.4 km/h 8.0 mph /  12.9 km/h 61 % 0.00 in /  0 mm
03:52 28.6 °F /  -1.9 °C 16.8 °F /  -8.4 °C 30.68 in /  1038.8 hPa North 6.1 mph /  9.8 km/h 8.1 mph /  13 km/h 61 % 0.00 in /  0 mm
03:57 28.6 °F /  -1.9 °C 17.2 °F /  -8.2 °C 30.68 in /  1038.8 hPa North 4.1 mph /  6.6 km/h 8.1 mph /  13 km/h 62 % 0.00 in /  0 mm
04:02 28.6 °F /  -1.9 °C 17.2 °F /  -8.2 °C 30.68 in /  1038.8 hPa NE 6.6 mph /  10.6 km/h 10.4 mph /  16.7 km/h 62 % 0.00 in /  0 mm
04:07 28.6 °F /  -1.9 °C 17.2 °F /  -8.2 °C 30.67 in /  1038.5 hPa NNE 5.3 mph /  8.5 km/h 8.1 mph /  13 km/h 62 % 0.00 in /  0 mm
04:12 28.6 °F /  -1.9 °C 16.8 °F /  -8.4 °C 30.68 in /  1038.8 hPa North 5.4 mph /  8.7 km/h 8.1 mph /  13 km/h 61 % 0.00 in /  0 mm
04:17 28.5 °F /  -1.9 °C 16.7 °F /  -8.5 °C 30.68 in /  1038.8 hPa NNE 5.9 mph /  9.5 km/h 9.2 mph /  14.8 km/h 61 % 0.00 in /  0 mm
04:22 28.5 °F /  -1.9 °C 17.1 °F /  -8.3 °C 30.68 in /  1038.8 hPa NNE 5.7 mph /  9.2 km/h 8.1 mph /  13 km/h 62 % 0.00 in /  0 mm
04:27 28.4 °F /  -2 °C 17.0 °F /  -8.3 °C 30.68 in /  1038.8 hPa NE 3.1 mph /  5 km/h 5.8 mph /  9.3 km/h 62 % 0.00 in /  0 mm
04:32 28.4 °F /  -2 °C 17.0 °F /  -8.3 °C 30.68 in /  1038.8 hPa NE 3.5 mph /  5.6 km/h 6.9 mph /  11.1 km/h 62 % 0.00 in /  0 mm
04:37 28.4 °F /  -2 °C 17.0 °F /  -8.3 °C 30.67 in /  1038.5 hPa NE 3.0 mph /  4.8 km/h 6.9 mph /  11.1 km/h 62 % 0.00 in /  0 mm
04:42 28.3 °F /  -2.1 °C 16.9 °F /  -8.4 °C 30.67 in /  1038.5 hPa NNE 3.2 mph /  5.1 km/h 5.8 mph /  9.3 km/h 62 % 0.00 in /  0 mm
04:47 28.3 °F /  -2.1 °C 16.6 °F /  -8.6 °C 30.67 in /  1038.5 hPa NNE 6.0 mph /  9.7 km/h 9.2 mph /  14.8 km/h 61 % 0.00 in /  0 mm
04:52 28.2 °F /  -2.1 °C 16.1 °F /  -8.8 °C 30.67 in /  1038.5 hPa NNE 4.1 mph /  6.6 km/h 6.0 mph /  9.7 km/h 60 % 0.00 in /  0 mm
04:57 28.1 °F /  -2.2 °C 16.4 °F /  -8.7 °C 30.67 in /  1038.5 hPa NNE 4.3 mph /  6.9 km/h 11.0 mph /  17.7 km/h 61 % 0.00 in /  0 mm
05:02 28.1 °F /  -2.2 °C 16.4 °F /  -8.7 °C 30.67 in /  1038.5 hPa NNE 5.9 mph /  9.5 km/h 9.2 mph /  14.8 km/h 61 % 0.00 in /  0 mm
05:08 28.1 °F /  -2.2 °C 16.0 °F /  -8.9 °C 30.67 in /  1038.5 hPa NNE 4.4 mph /  7.1 km/h 6.0 mph /  9.7 km/h 60 % 0.00 in /  0 mm
05:13 28.1 °F /  -2.2 °C 16.4 °F /  -8.7 °C 30.67 in /  1038.5 hPa NNE 5.9 mph /  9.5 km/h 8.1 mph /  13 km/h 61 % 0.00 in /  0 mm
05:18 28.1 °F /  -2.2 °C 16.4 °F /  -8.7 °C 30.67 in /  1038.5 hPa NNE 3.4 mph /  5.5 km/h 7.0 mph /  11.3 km/h 61 % 0.00 in /  0 mm
05:23 28.1 °F /  -2.2 °C 16.4 °F /  -8.7 °C 30.67 in /  1038.5 hPa NNE 3.1 mph /  5 km/h 9.2 mph /  14.8 km/h 61 % 0.00 in /  0 mm
05:28 28.0 °F /  -2.2 °C 15.9 °F /  -8.9 °C 30.67 in /  1038.5 hPa NNE 6.5 mph /  10.5 km/h 10.4 mph /  16.7 km/h 60 % 0.00 in /  0 mm
05:33 28.0 °F /  -2.2 °C 15.9 °F /  -8.9 °C 30.67 in /  1038.5 hPa NNE 6.0 mph /  9.7 km/h 9.2 mph /  14.8 km/h 60 % 0.00 in /  0 mm
05:38 28.0 °F /  -2.2 °C 16.3 °F /  -8.7 °C 30.67 in /  1038.5 hPa North 7.0 mph /  11.3 km/h 9.2 mph /  14.8 km/h 61 % 0.00 in /  0 mm
05:43 27.9 °F /  -2.3 °C 16.2 °F /  -8.8 °C 30.67 in /  1038.5 hPa NNE 2.8 mph /  4.5 km/h 5.8 mph /  9.3 km/h 61 % 0.00 in /  0 mm
05:48 27.9 °F /  -2.3 °C 15.8 °F /  -9 °C 30.66 in /  1038.1 hPa NNE 5.1 mph /  8.2 km/h 8.1 mph /  13 km/h 60 % 0.00 in /  0 mm
05:53 27.8 °F /  -2.3 °C 16.1 °F /  -8.8 °C 30.66 in /  1038.1 hPa North 7.5 mph /  12.1 km/h 11.0 mph /  17.7 km/h 61 % 0.00 in /  0 mm
05:58 27.8 °F /  -2.3 °C 15.7 °F /  -9.1 °C 30.66 in /  1038.1 hPa NE 3.1 mph /  5 km/h 4.6 mph /  7.4 km/h 60 % 0.00 in /  0 mm
06:03 27.8 °F /  -2.3 °C 16.1 °F /  -8.8 °C 30.66 in /  1038.1 hPa North 5.1 mph /  8.2 km/h 7.0 mph /  11.3 km/h 61 % 0.00 in /  0 mm
06:08 27.7 °F /  -2.4 °C 16.4 °F /  -8.7 °C 30.66 in /  1038.1 hPa NE 5.4 mph /  8.7 km/h 9.2 mph /  14.8 km/h 62 % 0.00 in /  0 mm
06:14 27.7 °F /  -2.4 °C 16.4 °F /  -8.7 °C 30.67 in /  1038.5 hPa NE 4.5 mph /  7.2 km/h 6.9 mph /  11.1 km/h 62 % 0.00 in /  0 mm
06:19 27.7 °F /  -2.4 °C 16.7 °F /  -8.5 °C 30.67 in /  1038.5 hPa NNE 6.3 mph /  10.1 km/h 8.0 mph /  12.9 km/h 63 % 0.00 in /  0 mm
06:24 27.6 °F /  -2.4 °C 16.6 °F /  -8.6 °C 30.66 in /  1038.1 hPa NE 7.1 mph /  11.4 km/h 8.1 mph /  13 km/h 63 % 0.00 in /  0 mm
06:29 27.6 °F /  -2.4 °C 16.6 °F /  -8.6 °C 30.66 in /  1038.1 hPa North 6.6 mph /  10.6 km/h 10.4 mph /  16.7 km/h 63 % 0.00 in /  0 mm
06:34 27.6 °F /  -2.4 °C 16.6 °F /  -8.6 °C 30.66 in /  1038.1 hPa NE 3.0 mph /  4.8 km/h 9.0 mph /  14.5 km/h 63 % 0.00 in /  0 mm
06:39 27.5 °F /  -2.5 °C 16.9 °F /  -8.4 °C 30.66 in /  1038.1 hPa NNE 4.4 mph /  7.1 km/h 9.0 mph /  14.5 km/h 64 % 0.00 in /  0 mm
06:44 27.5 °F /  -2.5 °C 16.9 °F /  -8.4 °C 30.67 in /  1038.5 hPa NE 3.0 mph /  4.8 km/h 7.0 mph /  11.3 km/h 64 % 0.00 in /  0 mm
06:49 27.4 °F /  -2.6 °C 16.8 °F /  -8.4 °C 30.66 in /  1038.1 hPa NE 3.0 mph /  4.8 km/h 6.0 mph /  9.7 km/h 64 % 0.00 in /  0 mm
06:54 27.4 °F /  -2.6 °C 16.8 °F /  -8.4 °C 30.66 in /  1038.1 hPa NE 1.0 mph /  1.6 km/h 9.0 mph /  14.5 km/h 64 % 0.00 in /  0 mm
06:59 27.3 °F /  -2.6 °C 16.4 °F /  -8.7 °C 30.66 in /  1038.1 hPa NNE 7.1 mph /  11.4 km/h 10.4 mph /  16.7 km/h 63 % 0.00 in /  0 mm
07:04 27.2 °F /  -2.7 °C 16.3 °F /  -8.7 °C 30.66 in /  1038.1 hPa NNE 2.0 mph /  3.2 km/h 10.0 mph /  16.1 km/h 63 % 0.00 in /  0 mm
07:09 27.2 °F /  -2.7 °C 16.3 °F /  -8.7 °C 30.66 in /  1038.1 hPa NNE 3.0 mph /  4.8 km/h 8.0 mph /  12.9 km/h 63 % 0.00 in /  0 mm
07:14 27.2 °F /  -2.7 °C 16.3 °F /  -8.7 °C 30.66 in /  1038.1 hPa NNE 5.0 mph /  8 km/h 8.1 mph /  13 km/h 63 % 0.00 in /  0 mm
07:19 27.1 °F /  -2.7 °C 16.2 °F /  -8.8 °C 30.66 in /  1038.1 hPa NNE 5.0 mph /  8 km/h 10.0 mph /  16.1 km/h 63 % 0.00 in /  0 mm
07:24 27.1 °F /  -2.7 °C 16.2 °F /  -8.8 °C 30.67 in /  1038.5 hPa NNE 5.0 mph /  8 km/h 9.0 mph /  14.5 km/h 63 % 0.00 in /  0 mm
07:29 27.1 °F /  -2.7 °C 16.2 °F /  -8.8 °C 30.67 in /  1038.5 hPa NNE 3.0 mph /  4.8 km/h 6.9 mph /  11.1 km/h 63 % 0.00 in /  0 mm
07:34 27.1 °F /  -2.7 °C 16.2 °F /  -8.8 °C 30.67 in /  1038.5 hPa NNE 3.5 mph /  5.6 km/h 8.1 mph /  13 km/h 63 % 0.00 in /  0 mm
07:39 27.1 °F /  -2.7 °C 16.1 °F /  -8.8 °C 30.66 in /  1038.1 hPa NE 2.0 mph /  3.2 km/h 5.0 mph /  8 km/h 63 % 0.00 in /  0 mm
07:44 27.0 °F /  -2.8 °C 16.8 °F /  -8.4 °C 30.66 in /  1038.1 hPa NE 3.0 mph /  4.8 km/h 6.0 mph /  9.7 km/h 65 % 0.00 in /  0 mm
07:49 27.0 °F /  -2.8 °C 16.4 °F /  -8.7 °C 30.67 in /  1038.5 hPa NNE 3.3 mph /  5.3 km/h 5.0 mph /  8 km/h 64 % 0.00 in /  0 mm
07:54 27.0 °F /  -2.8 °C 16.4 °F /  -8.7 °C 30.67 in /  1038.5 hPa NNE 3.0 mph /  4.8 km/h 7.0 mph /  11.3 km/h 64 % 0.00 in /  0 mm
07:59 27.0 °F /  -2.8 °C 16.4 °F /  -8.7 °C 30.66 in /  1038.1 hPa NNE 3.8 mph /  6.1 km/h 5.8 mph /  9.3 km/h 64 % 0.00 in /  0 mm
08:04 27.0 °F /  -2.8 °C 16.4 °F /  -8.7 °C 30.66 in /  1038.1 hPa ENE 4.3 mph /  6.9 km/h 5.8 mph /  9.3 km/h 64 % 0.00 in /  0 mm
08:09 27.1 °F /  -2.7 °C 16.5 °F /  -8.6 °C 30.66 in /  1038.1 hPa NNE 3.4 mph /  5.5 km/h 5.8 mph /  9.3 km/h 64 % 0.00 in /  0 mm
08:14 27.1 °F /  -2.7 °C 16.5 °F /  -8.6 °C 30.67 in /  1038.5 hPa NNE 3.4 mph /  5.5 km/h 6.0 mph /  9.7 km/h 64 % 0.00 in /  0 mm
08:19 27.3 °F /  -2.6 °C 16.7 °F /  -8.5 °C 30.66 in /  1038.1 hPa NE 4.4 mph /  7.1 km/h 5.8 mph /  9.3 km/h 64 % 0.00 in /  0 mm
08:24 27.5 °F /  -2.5 °C 16.9 °F /  -8.4 °C 30.66 in /  1038.1 hPa NE 2.0 mph /  3.2 km/h 3.5 mph /  5.6 km/h 64 % 0.00 in /  0 mm
08:29 27.6 °F /  -2.4 °C 16.6 °F /  -8.6 °C 30.66 in /  1038.1 hPa NNE 3.9 mph /  6.3 km/h 5.8 mph /  9.3 km/h 63 % 0.00 in /  0 mm
08:34 27.8 °F /  -2.3 °C 16.5 °F /  -8.6 °C 30.66 in /  1038.1 hPa ENE 1.9 mph /  3.1 km/h 3.5 mph /  5.6 km/h 62 % 0.00 in /  0 mm
08:39 27.9 °F /  -2.3 °C 16.9 °F /  -8.4 °C 30.67 in /  1038.5 hPa NNE 2.8 mph /  4.5 km/h 5.0 mph /  8 km/h 63 % 0.00 in /  0 mm
08:45 28.1 °F /  -2.2 °C 17.1 °F /  -8.3 °C 30.66 in /  1038.1 hPa ENE 3.1 mph /  5 km/h 5.8 mph /  9.3 km/h 63 % 0.00 in /  0 mm
08:50 28.3 °F /  -2.1 °C 16.9 °F /  -8.4 °C 30.66 in /  1038.1 hPa ENE 3.7 mph /  6 km/h 5.8 mph /  9.3 km/h 62 % 0.00 in /  0 mm
08:55 28.5 °F /  -1.9 °C 17.5 °F /  -8.1 °C 30.66 in /  1038.1 hPa NE 3.5 mph /  5.6 km/h 3.5 mph /  5.6 km/h 63 % 0.00 in /  0 mm
09:00 28.6 °F /  -1.9 °C 17.2 °F /  -8.2 °C 30.66 in /  1038.1 hPa ENE 2.7 mph /  4.3 km/h 4.6 mph /  7.4 km/h 62 % 0.00 in /  0 mm
09:05 28.6 °F /  -1.9 °C 17.6 °F /  -8 °C 30.65 in /  1037.8 hPa NNE 2.5 mph /  4 km/h 4.0 mph /  6.4 km/h 63 % 0.00 in /  0 mm
09:10 28.8 °F /  -1.8 °C 17.8 °F /  -7.9 °C 30.66 in /  1038.1 hPa ENE 2.4 mph /  3.9 km/h 3.5 mph /  5.6 km/h 63 % 0.00 in /  0 mm
09:15 28.9 °F /  -1.7 °C 17.9 °F /  -7.8 °C 30.66 in /  1038.1 hPa ENE 4.0 mph /  6.4 km/h 4.0 mph /  6.4 km/h 63 % 0.00 in /  0 mm
09:20 29.2 °F /  -1.6 °C 18.2 °F /  -7.7 °C 30.66 in /  1038.1 hPa East 3.4 mph /  5.5 km/h 5.8 mph /  9.3 km/h 63 % 0.00 in /  0 mm
09:25 29.4 °F /  -1.4 °C 18.0 °F /  -7.8 °C 30.66 in /  1038.1 hPa East 3.2 mph /  5.1 km/h 6.9 mph /  11.1 km/h 62 % 0.00 in /  0 mm
09:30 29.6 °F /  -1.3 °C 17.0 °F /  -8.3 °C 30.66 in /  1038.1 hPa ENE 5.8 mph /  9.3 km/h 9.2 mph /  14.8 km/h 59 % 0.00 in /  0 mm
09:35 29.9 °F /  -1.2 °C 17.3 °F /  -8.2 °C 30.66 in /  1038.1 hPa ENE 4.6 mph /  7.4 km/h 6.9 mph /  11.1 km/h 59 % 0.00 in /  0 mm
09:40 30.1 °F /  -1.1 °C 16.7 °F /  -8.5 °C 30.66 in /  1038.1 hPa ENE 2.6 mph /  4.2 km/h 3.5 mph /  5.6 km/h 57 % 0.00 in /  0 mm
09:45 30.3 °F /  -0.9 °C 16.5 °F /  -8.6 °C 30.65 in /  1037.8 hPa ENE 5.8 mph /  9.3 km/h 9.2 mph /  14.8 km/h 56 % 0.00 in /  0 mm
09:51 30.4 °F /  -0.9 °C 16.6 °F /  -8.6 °C 30.66 in /  1038.1 hPa East 3.4 mph /  5.5 km/h 6.9 mph /  11.1 km/h 56 % 0.00 in /  0 mm
09:56 30.7 °F /  -0.7 °C 17.3 °F /  -8.2 °C 30.66 in /  1038.1 hPa East 2.8 mph /  4.5 km/h 4.6 mph /  7.4 km/h 57 % 0.00 in /  0 mm
10:01 31.1 °F /  -0.5 °C 15.9 °F /  -8.9 °C 30.65 in /  1037.8 hPa NE 3.2 mph /  5.1 km/h 6.9 mph /  11.1 km/h 53 % 0.00 in /  0 mm
10:06 31.4 °F /  -0.3 °C 16.2 °F /  -8.8 °C 30.65 in /  1037.8 hPa ENE 3.7 mph /  6 km/h 7.0 mph /  11.3 km/h 53 % 0.00 in /  0 mm
10:11 31.8 °F /  -0.1 °C 15.7 °F /  -9.1 °C 30.64 in /  1037.5 hPa ENE 5.4 mph /  8.7 km/h 10.4 mph /  16.7 km/h 51 % 0.00 in /  0 mm
10:16 32.0 °F /  0 °C 15.9 °F /  -8.9 °C 30.64 in /  1037.5 hPa ENE 5.8 mph /  9.3 km/h 9.2 mph /  14.8 km/h 51 % 0.00 in /  0 mm
10:21 32.0 °F /  0 °C 16.3 °F /  -8.7 °C 30.64 in /  1037.5 hPa East 4.8 mph /  7.7 km/h 6.9 mph /  11.1 km/h 52 % 0.00 in /  0 mm
10:26 32.0 °F /  0 °C 15.4 °F /  -9.2 °C 30.65 in /  1037.8 hPa ENE 5.7 mph /  9.2 km/h 8.1 mph /  13 km/h 50 % 0.00 in /  0 mm
10:31 31.9 °F /  -0.1 °C 15.3 °F /  -9.3 °C 30.65 in /  1037.8 hPa ENE 3.2 mph /  5.1 km/h 8.1 mph /  13 km/h 50 % 0.00 in /  0 mm
10:36 31.9 °F /  -0.1 °C 14.4 °F /  -9.8 °C 30.65 in /  1037.8 hPa East 2.9 mph /  4.7 km/h 5.8 mph /  9.3 km/h 48 % 0.00 in /  0 mm
10:41 32.0 °F /  0 °C 15.0 °F /  -9.4 °C 30.64 in /  1037.5 hPa East 2.1 mph /  3.4 km/h 5.0 mph /  8 km/h 49 % 0.00 in /  0 mm
10:46 31.8 °F /  -0.1 °C 14.8 °F /  -9.6 °C 30.64 in /  1037.5 hPa East 3.1 mph /  5 km/h 5.0 mph /  8 km/h 49 % 0.00 in /  0 mm
10:51 31.6 °F /  -0.2 °C 14.6 °F /  -9.7 °C 30.63 in /  1037.1 hPa ENE 3.3 mph /  5.3 km/h 4.6 mph /  7.4 km/h 49 % 0.00 in /  0 mm
10:56 31.5 °F /  -0.3 °C 15.9 °F /  -8.9 °C 30.63 in /  1037.1 hPa ENE 0.7 mph /  1.1 km/h 3.5 mph /  5.6 km/h 52 % 0.00 in /  0 mm
11:02 31.5 °F /  -0.3 °C 16.3 °F /  -8.7 °C 30.62 in /  1036.8 hPa ENE 3.9 mph /  6.3 km/h 7.0 mph /  11.3 km/h 53 % 0.00 in /  0 mm
11:07 31.6 °F /  -0.2 °C 16.4 °F /  -8.7 °C 30.62 in /  1036.8 hPa ENE 3.7 mph /  6 km/h 5.0 mph /  8 km/h 53 % 0.00 in /  0 mm
11:12 31.5 °F /  -0.3 °C 15.0 °F /  -9.4 °C 30.61 in /  1036.5 hPa ENE 1.3 mph /  2.1 km/h 3.5 mph /  5.6 km/h 50 % 0.00 in /  0 mm
11:17 31.4 °F /  -0.3 °C 15.3 °F /  -9.3 °C 30.60 in /  1036.1 hPa ENE 2.6 mph /  4.2 km/h 4.0 mph /  6.4 km/h 51 % 0.00 in /  0 mm
11:22 31.4 °F /  -0.3 °C 15.8 °F /  -9 °C 30.60 in /  1036.1 hPa NE 4.0 mph /  6.4 km/h 6.9 mph /  11.1 km/h 52 % 0.00 in /  0 mm
11:27 31.5 °F /  -0.3 °C 15.9 °F /  -8.9 °C 30.58 in /  1035.4 hPa ENE 2.8 mph /  4.5 km/h 3.5 mph /  5.6 km/h 52 % 0.00 in /  0 mm
11:32 31.6 °F /  -0.2 °C 15.1 °F /  -9.4 °C 30.59 in /  1035.8 hPa ENE 3.9 mph /  6.3 km/h 8.1 mph /  13 km/h 50 % 0.00 in /  0 mm
11:37 31.7 °F /  -0.2 °C 16.1 °F /  -8.8 °C 30.58 in /  1035.4 hPa NNE 2.1 mph /  3.4 km/h 4.0 mph /  6.4 km/h 52 % 0.00 in /  0 mm
11:42 32.0 °F /  0 °C 16.8 °F /  -8.4 °C 30.58 in /  1035.4 hPa NE 2.2 mph /  3.5 km/h 3.5 mph /  5.6 km/h 53 % 0.00 in /  0 mm
11:47 32.1 °F /  0.1 °C 16.0 °F /  -8.9 °C 30.58 in /  1035.4 hPa NE 1.8 mph /  2.9 km/h 3.5 mph /  5.6 km/h 51 % 0.00 in /  0 mm
11:52 32.1 °F /  0.1 °C 16.4 °F /  -8.7 °C 30.57 in /  1035.1 hPa ENE 2.2 mph /  3.5 km/h 4.6 mph /  7.4 km/h 52 % 0.00 in /  0 mm
11:57 32.1 °F /  0.1 °C 17.3 °F /  -8.2 °C 30.57 in /  1035.1 hPa NNE 3.3 mph /  5.3 km/h 5.8 mph /  9.3 km/h 54 % 0.00 in /  0 mm
12:02 32.1 °F /  0.1 °C 17.3 °F /  -8.2 °C 30.56 in /  1034.8 hPa NE 2.2 mph /  3.5 km/h 4.0 mph /  6.4 km/h 54 % 0.00 in /  0 mm
12:07 32.0 °F /  0 °C 17.2 °F /  -8.2 °C 30.56 in /  1034.8 hPa ENE 2.8 mph /  4.5 km/h 4.6 mph /  7.4 km/h 54 % 0.00 in /  0 mm
12:12 31.9 °F /  -0.1 °C 16.7 °F /  -8.5 °C 30.56 in /  1034.8 hPa ENE 1.5 mph /  2.4 km/h 4.6 mph /  7.4 km/h 53 % 0.00 in /  0 mm
12:17 31.7 °F /  -0.2 °C 16.9 °F /  -8.4 °C 30.55 in /  1034.4 hPa ENE 1.4 mph /  2.3 km/h 3.5 mph /  5.6 km/h 54 % 0.00 in /  0 mm
12:22 31.8 °F /  -0.1 °C 17.0 °F /  -8.3 °C 30.55 in /  1034.4 hPa ENE 3.0 mph /  4.8 km/h 4.0 mph /  6.4 km/h 54 % 0.00 in /  0 mm
12:28 31.7 °F /  -0.2 °C 16.9 °F /  -8.4 °C 30.55 in /  1034.4 hPa NE 3.2 mph /  5.1 km/h 4.6 mph /  7.4 km/h 54 % 0.00 in /  0 mm
12:33 31.8 °F /  -0.1 °C 17.5 °F /  -8.1 °C 30.54 in /  1034.1 hPa NNE 2.1 mph /  3.4 km/h 3.5 mph /  5.6 km/h 55 % 0.00 in /  0 mm
12:38 31.8 °F /  -0.1 °C 17.0 °F /  -8.3 °C 30.53 in /  1033.7 hPa ENE 0.3 mph /  0.5 km/h 3.5 mph /  5.6 km/h 54 % 0.00 in /  0 mm
12:43 31.9 °F /  -0.1 °C 17.5 °F /  -8.1 °C 30.53 in /  1033.7 hPa NE 1.6 mph /  2.6 km/h 3.5 mph /  5.6 km/h 55 % 0.00 in /  0 mm
12:48 31.9 °F /  -0.1 °C 16.7 °F /  -8.5 °C 30.53 in /  1033.7 hPa ENE 1.9 mph /  3.1 km/h 6.9 mph /  11.1 km/h 53 % 0.00 in /  0 mm
12:53 31.8 °F /  -0.1 °C 17.0 °F /  -8.3 °C 30.52 in /  1033.4 hPa NE 2.4 mph /  3.9 km/h 3.5 mph /  5.6 km/h 54 % 0.00 in /  0 mm
12:58 31.8 °F /  -0.1 °C 17.5 °F /  -8.1 °C 30.52 in /  1033.4 hPa NE 2.4 mph /  3.9 km/h 3.5 mph /  5.6 km/h 55 % 0.00 in /  0 mm
13:03 31.8 °F /  -0.1 °C 17.0 °F /  -8.3 °C 30.53 in /  1033.7 hPa NE 0.8 mph /  1.3 km/h 3.5 mph /  5.6 km/h 54 % 0.00 in /  0 mm
13:08 31.8 °F /  -0.1 °C 17.9 °F /  -7.8 °C 30.53 in /  1033.7 hPa NNE 2.9 mph /  4.7 km/h 5.8 mph /  9.3 km/h 56 % 0.00 in /  0 mm
13:13 31.9 °F /  -0.1 °C 17.5 °F /  -8.1 °C 30.53 in /  1033.7 hPa NNE 0.8 mph /  1.3 km/h 2.3 mph /  3.7 km/h 55 % 0.00 in /  0 mm
13:18 31.9 °F /  -0.1 °C 17.5 °F /  -8.1 °C 30.53 in /  1033.7 hPa NNE 1.0 mph /  1.6 km/h 3.5 mph /  5.6 km/h 55 % 0.00 in /  0 mm
13:23 32.0 °F /  0 °C 17.6 °F /  -8 °C 30.53 in /  1033.7 hPa North 1.7 mph /  2.7 km/h 3.5 mph /  5.6 km/h 55 % 0.00 in /  0 mm
13:28 32.1 °F /  0.1 °C 18.2 °F /  -7.7 °C 30.53 in /  1033.7 hPa NE 1.0 mph /  1.6 km/h 2.3 mph /  3.7 km/h 56 % 0.00 in /  0 mm
13:34 32.1 °F /  0.1 °C 17.7 °F /  -7.9 °C 30.53 in /  1033.7 hPa NE 1.4 mph /  2.3 km/h 2.3 mph /  3.7 km/h 55 % 0.00 in /  0 mm
13:39 32.2 °F /  0.1 °C 18.2 °F /  -7.7 °C 30.53 in /  1033.7 hPa NE 0.1 mph /  0.2 km/h 1.0 mph /  1.6 km/h 56 % 0.00 in /  0 mm
13:44 32.3 °F /  0.2 °C 18.3 °F /  -7.6 °C 30.52 in /  1033.4 hPa NE 0.4 mph /  0.6 km/h 2.0 mph /  3.2 km/h 56 % 0.00 in /  0 mm
13:49 32.3 °F /  0.2 °C 17.9 °F /  -7.8 °C 30.51 in /  1033.1 hPa Calm   1.0 mph /  1.6 km/h 55 % 0.00 in /  0 mm
13:54 32.3 °F /  0.2 °C 17.5 °F /  -8.1 °C 30.51 in /  1033.1 hPa Calm   2.0 mph /  3.2 km/h 54 % 0.00 in /  0 mm
13:59 32.4 °F /  0.2 °C 17.6 °F /  -8 °C 30.51 in /  1033.1 hPa NE 0.2 mph /  0.3 km/h   54 % 0.00 in /  0 mm
14:04 32.3 °F /  0.2 °C 17.5 °F /  -8.1 °C 30.51 in /  1033.1 hPa Calm   1.0 mph /  1.6 km/h 54 % 0.00 in /  0 mm
14:09 32.3 °F /  0.2 °C 17.5 °F /  -8.1 °C 30.50 in /  1032.7 hPa Calm   1.0 mph /  1.6 km/h 54 % 0.00 in /  0 mm
14:14 32.3 °F /  0.2 °C 17.5 °F /  -8.1 °C 30.50 in /  1032.7 hPa Calm     54 % 0.00 in /  0 mm
14:19 32.3 °F /  0.2 °C 17.5 °F /  -8.1 °C 30.50 in /  1032.7 hPa Calm   1.0 mph /  1.6 km/h 54 % 0.00 in /  0 mm
14:24 32.2 °F /  0.1 °C 17.8 °F /  -7.9 °C 30.49 in /  1032.4 hPa Calm   2.0 mph /  3.2 km/h 55 % 0.00 in /  0 mm
14:29 32.1 °F /  0.1 °C 17.3 °F /  -8.2 °C 30.49 in /  1032.4 hPa Calm     54 % 0.00 in /  0 mm
14:34 32.1 °F /  0.1 °C 17.7 °F /  -7.9 °C 30.49 in /  1032.4 hPa Calm   3.0 mph /  4.8 km/h 55 % 0.00 in /  0 mm
14:39 32.0 °F /  0 °C 17.6 °F /  -8 °C 30.48 in /  1032.1 hPa NE 2.0 mph /  3.2 km/h 3.0 mph /  4.8 km/h 55 % 0.00 in /  0 mm
14:44 31.9 °F /  -0.1 °C 18.0 °F /  -7.8 °C 30.48 in /  1032.1 hPa NE 0.3 mph /  0.5 km/h 1.2 mph /  1.9 km/h 56 % 0.00 in /  0 mm
14:49 31.9 °F /  -0.1 °C 18.4 °F /  -7.6 °C 30.48 in /  1032.1 hPa Calm   2.0 mph /  3.2 km/h 57 % 0.00 in /  0 mm
14:54 31.8 °F /  -0.1 °C 18.3 °F /  -7.6 °C 30.48 in /  1032.1 hPa Calm   2.0 mph /  3.2 km/h 57 % 0.00 in /  0 mm
14:59 31.8 °F /  -0.1 °C 18.3 °F /  -7.6 °C 30.48 in /  1032.1 hPa NE 0.9 mph /  1.4 km/h 2.3 mph /  3.7 km/h 57 % 0.00 in /  0 mm
15:04 31.8 °F /  -0.1 °C 18.3 °F /  -7.6 °C 30.48 in /  1032.1 hPa Calm     57 % 0.00 in /  0 mm
15:09 31.7 °F /  -0.2 °C 18.2 °F /  -7.7 °C 30.48 in /  1032.1 hPa Calm     57 % 0.00 in /  0 mm
15:14 31.7 °F /  -0.2 °C 18.6 °F /  -7.4 °C 30.48 in /  1032.1 hPa NE 0.2 mph /  0.3 km/h 1.2 mph /  1.9 km/h 58 % 0.00 in /  0 mm
15:19 31.7 °F /  -0.2 °C 18.6 °F /  -7.4 °C 30.48 in /  1032.1 hPa Calm   1.2 mph /  1.9 km/h 58 % 0.00 in /  0 mm
15:24 31.6 °F /  -0.2 °C 18.9 °F /  -7.3 °C 30.48 in /  1032.1 hPa Calm     59 % 0.00 in /  0 mm
15:29 31.6 °F /  -0.2 °C 18.9 °F /  -7.3 °C 30.48 in /  1032.1 hPa SW 0.5 mph /  0.8 km/h 3.5 mph /  5.6 km/h 59 % 0.00 in /  0 mm
15:34 31.5 °F /  -0.3 °C 19.2 °F /  -7.1 °C 30.48 in /  1032.1 hPa SW 1.3 mph /  2.1 km/h 2.3 mph /  3.7 km/h 60 % 0.00 in /  0 mm
15:39 31.5 °F /  -0.3 °C 20.0 °F /  -6.7 °C 30.49 in /  1032.4 hPa SW 2.6 mph /  4.2 km/h 5.0 mph /  8 km/h 62 % 0.00 in /  0 mm
15:45 31.3 °F /  -0.4 °C 21.3 °F /  -5.9 °C 30.49 in /  1032.4 hPa WSW 3.7 mph /  6 km/h 6.9 mph /  11.1 km/h 66 % 0.00 in /  0 mm
15:50 31.0 °F /  -0.6 °C 22.4 °F /  -5.3 °C 30.49 in /  1032.4 hPa SW 4.2 mph /  6.8 km/h 6.0 mph /  9.7 km/h 70 % 0.00 in /  0 mm
15:55 30.6 °F /  -0.8 °C 23.0 °F /  -5 °C 30.48 in /  1032.1 hPa SSW 1.4 mph /  2.3 km/h 3.5 mph /  5.6 km/h 73 % 0.00 in /  0 mm
16:00 30.3 °F /  -0.9 °C 23.6 °F /  -4.7 °C 30.48 in /  1032.1 hPa SSW 1.2 mph /  1.9 km/h 3.0 mph /  4.8 km/h 76 % 0.00 in /  0 mm
16:05 30.0 °F /  -1.1 °C 24.0 °F /  -4.4 °C 30.47 in /  1031.7 hPa Calm   2.3 mph /  3.7 km/h 78 % 0.00 in /  0 mm
16:10 29.9 °F /  -1.2 °C 24.2 °F /  -4.3 °C 30.47 in /  1031.7 hPa SW 0.8 mph /  1.3 km/h 3.5 mph /  5.6 km/h 79 % 0.00 in /  0 mm
16:15 29.6 °F /  -1.3 °C 24.2 °F /  -4.3 °C 30.47 in /  1031.7 hPa SW 0.8 mph /  1.3 km/h 2.3 mph /  3.7 km/h 80 % 0.01 in /  0.25 mm
16:20 29.5 °F /  -1.4 °C 24.4 °F /  -4.2 °C 30.47 in /  1031.7 hPa SW 0.3 mph /  0.5 km/h 2.3 mph /  3.7 km/h 81 % 0.01 in /  0.25 mm
16:25 29.3 °F /  -1.5 °C 24.5 °F /  -4.2 °C 30.47 in /  1031.7 hPa SW 0.7 mph /  1.1 km/h 2.3 mph /  3.7 km/h 82 % 0.01 in /  0.25 mm
16:30 29.1 °F /  -1.6 °C 24.6 °F /  -4.1 °C 30.46 in /  1031.4 hPa Calm   1.0 mph /  1.6 km/h 83 % 0.02 in /  0.51 mm
16:35 29.0 °F /  -1.7 °C 24.8 °F /  -4 °C 30.45 in /  1031 hPa Calm     84 % 0.02 in /  0.51 mm
16:40 28.9 °F /  -1.7 °C 25.0 °F /  -3.9 °C 30.46 in /  1031.4 hPa Calm     85 % 0.03 in /  0.76 mm
16:45 28.8 °F /  -1.8 °C 25.1 °F /  -3.8 °C 30.46 in /  1031.4 hPa SSW 0.1 mph /  0.2 km/h   86 % 0.03 in /  0.76 mm
16:50 28.6 °F /  -1.9 °C 24.9 °F /  -3.9 °C 30.45 in /  1031 hPa Calm     86 % 0.03 in /  0.76 mm
16:55 28.4 °F /  -2 °C 25.0 °F /  -3.9 °C 30.45 in /  1031 hPa Calm   1.2 mph /  1.9 km/h 87 % 0.03 in /  0.76 mm
17:00 28.3 °F /  -2.1 °C 24.9 °F /  -3.9 °C 30.44 in /  1030.7 hPa SSE 0.3 mph /  0.5 km/h 1.2 mph /  1.9 km/h 87 % 0.04 in /  1.02 mm
17:05 28.3 °F /  -2.1 °C 24.9 °F /  -3.9 °C 30.43 in /  1030.4 hPa SSE 0.1 mph /  0.2 km/h 1.0 mph /  1.6 km/h 87 % 0.04 in /  1.02 mm
17:11 28.2 °F /  -2.1 °C 25.1 °F /  -3.8 °C 30.43 in /  1030.4 hPa Calm     88 % 0.04 in /  1.02 mm
17:16 28.1 °F /  -2.2 °C 25.0 °F /  -3.9 °C 30.43 in /  1030.4 hPa Calm     88 % 0.03 in /  0.76 mm
17:21 28.1 °F /  -2.2 °C 25.0 °F /  -3.9 °C 30.43 in /  1030.4 hPa Calm     88 % 0.03 in /  0.76 mm
17:26 28.1 °F /  -2.2 °C 25.0 °F /  -3.9 °C 30.43 in /  1030.4 hPa Calm     88 % 0.03 in /  0.76 mm
17:31 28.0 °F /  -2.2 °C 24.9 °F /  -3.9 °C 30.43 in /  1030.4 hPa Calm     88 % 0.02 in /  0.51 mm
17:36 27.9 °F /  -2.3 °C 24.8 °F /  -4 °C 30.42 in /  1030 hPa Calm     88 % 0.03 in /  0.76 mm
17:41 27.9 °F /  -2.3 °C 24.8 °F /  -4 °C 30.42 in /  1030 hPa Calm     88 % 0.02 in /  0.51 mm
17:46 27.9 °F /  -2.3 °C 24.8 °F /  -4 °C 30.42 in /  1030 hPa Calm     88 % 0.02 in /  0.51 mm
17:51 27.9 °F /  -2.3 °C 24.8 °F /  -4 °C 30.42 in /  1030 hPa Calm     88 % 0.02 in /  0.51 mm
17:56 27.8 °F /  -2.3 °C 24.7 °F /  -4.1 °C 30.42 in /  1030 hPa Calm     88 % 0.01 in /  0.25 mm
18:01 27.8 °F /  -2.3 °C 24.7 °F /  -4.1 °C 30.41 in /  1029.7 hPa Calm     88 % 0.01 in /  0.25 mm
18:07 27.8 °F /  -2.3 °C 25.0 °F /  -3.9 °C 30.41 in /  1029.7 hPa Calm   1.2 mph /  1.9 km/h 89 % 0.01 in /  0.25 mm
18:12 27.8 °F /  -2.3 °C 25.0 °F /  -3.9 °C 30.41 in /  1029.7 hPa Calm     89 % 0.02 in /  0.51 mm
18:17 27.8 °F /  -2.3 °C 25.0 °F /  -3.9 °C 30.41 in /  1029.7 hPa Calm     89 % 0.02 in /  0.51 mm
18:22 27.8 °F /  -2.3 °C 25.0 °F /  -3.9 °C 30.41 in /  1029.7 hPa Calm     89 % 0.02 in /  0.51 mm
18:27 27.8 °F /  -2.3 °C 25.0 °F /  -3.9 °C 30.41 in /  1029.7 hPa Calm     89 % 0.02 in /  0.51 mm
18:32 27.8 °F /  -2.3 °C 25.0 °F /  -3.9 °C 30.41 in /  1029.7 hPa Calm     89 % 0.02 in /  0.51 mm
18:37 27.8 °F /  -2.3 °C 25.0 °F /  -3.9 °C 30.41 in /  1029.7 hPa Calm     89 % 0.01 in /  0.25 mm
18:42 27.8 °F /  -2.3 °C 25.0 °F /  -3.9 °C 30.40 in /  1029.3 hPa Calm     89 % 0.01 in /  0.25 mm
18:47 27.8 °F /  -2.3 °C 25.2 °F /  -3.8 °C 30.41 in /  1029.7 hPa Calm     90 % 0.01 in /  0.25 mm
18:52 27.8 °F /  -2.3 °C 25.2 °F /  -3.8 °C 30.40 in /  1029.3 hPa Calm     90 % 0.01 in /  0.25 mm
18:57 27.9 °F /  -2.3 °C 25.3 °F /  -3.7 °C 30.40 in /  1029.3 hPa Calm     90 % 0.02 in /  0.51 mm
19:02 27.9 °F /  -2.3 °C 25.3 °F /  -3.7 °C 30.40 in /  1029.3 hPa Calm     90 % 0.02 in /  0.51 mm
19:07 27.9 °F /  -2.3 °C 25.3 °F /  -3.7 °C 30.40 in /  1029.3 hPa Calm     90 % 0.02 in /  0.51 mm
19:13 27.9 °F /  -2.3 °C 25.3 °F /  -3.7 °C 30.39 in /  1029 hPa Calm     90 % 0.01 in /  0.25 mm
19:18 28.0 °F /  -2.2 °C 25.4 °F /  -3.7 °C 30.39 in /  1029 hPa Calm     90 % 0.01 in /  0.25 mm
19:23 28.0 °F /  -2.2 °C 25.4 °F /  -3.7 °C 30.38 in /  1028.7 hPa Calm     90 % 0.01 in /  0.25 mm
19:28 28.0 °F /  -2.2 °C 25.7 °F /  -3.5 °C 30.38 in /  1028.7 hPa Calm     91 % 0.01 in /  0.25 mm
19:33 28.0 °F /  -2.2 °C 25.7 °F /  -3.5 °C 30.38 in /  1028.7 hPa Calm     91 % 0.01 in /  0.25 mm
19:38 28.0 °F /  -2.2 °C 25.7 °F /  -3.5 °C 30.38 in /  1028.7 hPa Calm     91 % 0.01 in /  0.25 mm
19:43 28.1 °F /  -2.2 °C 25.8 °F /  -3.4 °C 30.37 in /  1028.3 hPa Calm     91 % 0.01 in /  0.25 mm
19:48 28.1 °F /  -2.2 °C 25.8 °F /  -3.4 °C 30.37 in /  1028.3 hPa Calm     91 % 0.01 in /  0.25 mm
19:53 28.1 °F /  -2.2 °C 25.8 °F /  -3.4 °C 30.37 in /  1028.3 hPa Calm     91 % 0.01 in /  0.25 mm
19:58 28.1 °F /  -2.2 °C 25.8 °F /  -3.4 °C 30.36 in /  1028 hPa Calm     91 % 0.00 in /  0 mm
20:03 28.1 °F /  -2.2 °C 25.8 °F /  -3.4 °C 30.37 in /  1028.3 hPa Calm     91 % 0.00 in /  0 mm
20:08 28.1 °F /  -2.2 °C 25.8 °F /  -3.4 °C 30.37 in /  1028.3 hPa Calm     91 % 0.00 in /  0 mm
20:13 28.2 °F /  -2.1 °C 25.9 °F /  -3.4 °C 30.37 in /  1028.3 hPa Calm     91 % 0.00 in /  0 mm
20:18 28.2 °F /  -2.1 °C 25.9 °F /  -3.4 °C 30.37 in /  1028.3 hPa Calm     91 % 0.00 in /  0 mm
20:23 28.3 °F /  -2.1 °C 26.0 °F /  -3.3 °C 30.36 in /  1028 hPa Calm     91 % 0.00 in /  0 mm
20:28 28.3 °F /  -2.1 °C 26.0 °F /  -3.3 °C 30.36 in /  1028 hPa Calm     91 % 0.00 in /  0 mm
20:33 28.3 °F /  -2.1 °C 26.0 °F /  -3.3 °C 30.36 in /  1028 hPa Calm     91 % 0.00 in /  0 mm
20:39 28.3 °F /  -2.1 °C 26.0 °F /  -3.3 °C 30.36 in /  1028 hPa Calm     91 % 0.00 in /  0 mm
20:44 28.3 °F /  -2.1 °C 26.0 °F /  -3.3 °C 30.35 in /  1027.7 hPa Calm     91 % 0.00 in /  0 mm
20:49 28.4 °F /  -2 °C 26.4 °F /  -3.1 °C 30.35 in /  1027.7 hPa Calm     92 % 0.00 in /  0 mm
20:54 28.4 °F /  -2 °C 26.4 °F /  -3.1 °C 30.35 in /  1027.7 hPa Calm     92 % 0.00 in /  0 mm
20:59 28.4 °F /  -2 °C 26.4 °F /  -3.1 °C 30.35 in /  1027.7 hPa Calm     92 % 0.00 in /  0 mm
21:04 28.5 °F /  -1.9 °C 26.5 °F /  -3.1 °C 30.35 in /  1027.7 hPa Calm     92 % 0.00 in /  0 mm
21:09 28.5 °F /  -1.9 °C 26.5 °F /  -3.1 °C 30.34 in /  1027.3 hPa Calm     92 % 0.00 in /  0 mm
21:14 28.5 °F /  -1.9 °C 26.5 °F /  -3.1 °C 30.34 in /  1027.3 hPa Calm   1.0 mph /  1.6 km/h 92 % 0.00 in /  0 mm
21:19 28.6 °F /  -1.9 °C 26.6 °F /  -3 °C 30.35 in /  1027.7 hPa Calm     92 % 0.00 in /  0 mm
21:24 28.7 °F /  -1.8 °C 26.7 °F /  -2.9 °C 30.35 in /  1027.7 hPa SSE 0.2 mph /  0.3 km/h 1.2 mph /  1.9 km/h 92 % 0.00 in /  0 mm
21:29 28.7 °F /  -1.8 °C 26.7 °F /  -2.9 °C 30.34 in /  1027.3 hPa Calm     92 % 0.00 in /  0 mm
21:34 28.8 °F /  -1.8 °C 26.8 °F /  -2.9 °C 30.35 in /  1027.7 hPa Calm   2.0 mph /  3.2 km/h 92 % 0.00 in /  0 mm
21:39 28.8 °F /  -1.8 °C 26.8 °F /  -2.9 °C 30.34 in /  1027.3 hPa Calm   1.2 mph /  1.9 km/h 92 % 0.00 in /  0 mm
21:44 28.8 °F /  -1.8 °C 26.8 °F /  -2.9 °C 30.34 in /  1027.3 hPa Calm   2.0 mph /  3.2 km/h 92 % 0.00 in /  0 mm
21:49 28.9 °F /  -1.7 °C 26.9 °F /  -2.8 °C 30.34 in /  1027.3 hPa Calm   1.0 mph /  1.6 km/h 92 % 0.00 in /  0 mm
21:54 28.9 °F /  -1.7 °C 26.9 °F /  -2.8 °C 30.33 in /  1027 hPa Calm     92 % 0.00 in /  0 mm
21:59 29.0 °F /  -1.7 °C 27.0 °F /  -2.8 °C 30.33 in /  1027 hPa Calm     92 % 0.00 in /  0 mm
22:04 29.0 °F /  -1.7 °C 27.0 °F /  -2.8 °C 30.33 in /  1027 hPa Calm     92 % 0.00 in /  0 mm
22:09 29.0 °F /  -1.7 °C 27.0 °F /  -2.8 °C 30.33 in /  1027 hPa SSE 0.1 mph /  0.2 km/h 1.2 mph /  1.9 km/h 92 % 0.00 in /  0 mm
22:14 29.1 °F /  -1.6 °C 27.1 °F /  -2.7 °C 30.32 in /  1026.6 hPa SSE 0.4 mph /  0.6 km/h 2.3 mph /  3.7 km/h 92 % 0.00 in /  0 mm
22:19 29.1 °F /  -1.6 °C 27.1 °F /  -2.7 °C 30.32 in /  1026.6 hPa SSE 0.1 mph /  0.2 km/h 1.2 mph /  1.9 km/h 92 % 0.00 in /  0 mm
22:24 29.1 °F /  -1.6 °C 27.1 °F /  -2.7 °C 30.32 in /  1026.6 hPa Calm     92 % 0.00 in /  0 mm
22:29 29.2 °F /  -1.6 °C 27.2 °F /  -2.7 °C 30.32 in /  1026.6 hPa Calm     92 % 0.00 in /  0 mm
22:34 29.2 °F /  -1.6 °C 27.2 °F /  -2.7 °C 30.31 in /  1026.3 hPa SSE 0.3 mph /  0.5 km/h 1.2 mph /  1.9 km/h 92 % 0.00 in /  0 mm
22:39 29.2 °F /  -1.6 °C 27.2 °F /  -2.7 °C 30.31 in /  1026.3 hPa Calm     92 % 0.00 in /  0 mm
22:44 29.3 °F /  -1.5 °C 27.3 °F /  -2.6 °C 30.31 in /  1026.3 hPa SSE 0.1 mph /  0.2 km/h 1.2 mph /  1.9 km/h 92 % 0.00 in /  0 mm
22:50 29.3 °F /  -1.5 °C 27.5 °F /  -2.5 °C 30.31 in /  1026.3 hPa SSE 0.1 mph /  0.2 km/h 2.3 mph /  3.7 km/h 93 % 0.00 in /  0 mm
22:55 29.4 °F /  -1.4 °C 27.6 °F /  -2.4 °C 30.30 in /  1026 hPa Calm   2.3 mph /  3.7 km/h 93 % 0.00 in /  0 mm
22:59 29.4 °F /  -1.4 °C 27.6 °F /  -2.4 °C 30.30 in /  1026 hPa SSE 0.8 mph /  1.3 km/h 2.3 mph /  3.7 km/h 93 % 0.00 in /  0 mm
23:04 29.5 °F /  -1.4 °C 27.7 °F /  -2.4 °C 30.30 in /  1026 hPa SSE 0.2 mph /  0.3 km/h 1.0 mph /  1.6 km/h 93 % 0.00 in /  0 mm
23:10 29.5 °F /  -1.4 °C 27.7 °F /  -2.4 °C 30.30 in /  1026 hPa SSE 0.6 mph /  1 km/h 2.3 mph /  3.7 km/h 93 % 0.00 in /  0 mm
23:15 29.5 °F /  -1.4 °C 27.7 °F /  -2.4 °C 30.30 in /  1026 hPa Calm   1.2 mph /  1.9 km/h 93 % 0.00 in /  0 mm
23:20 29.6 °F /  -1.3 °C 27.8 °F /  -2.3 °C 30.30 in /  1026 hPa SSE 0.1 mph /  0.2 km/h 1.2 mph /  1.9 km/h 93 % 0.00 in /  0 mm
23:25 29.6 °F /  -1.3 °C 27.8 °F /  -2.3 °C 30.30 in /  1026 hPa Calm     93 % 0.00 in /  0 mm
23:30 29.6 °F /  -1.3 °C 27.8 °F /  -2.3 °C 30.29 in /  1025.6 hPa Calm     93 % 0.00 in /  0 mm
23:35 29.6 °F /  -1.3 °C 27.8 °F /  -2.3 °C 30.29 in /  1025.6 hPa Calm     93 % 0.00 in /  0 mm
23:40 29.6 °F /  -1.3 °C 27.8 °F /  -2.3 °C 30.29 in /  1025.6 hPa Calm   1.2 mph /  1.9 km/h 93 % 0.00 in /  0 mm
23:45 29.7 °F /  -1.3 °C 27.9 °F /  -2.3 °C 30.29 in /  1025.6 hPa Calm     93 % 0.00 in /  0 mm
23:50 29.7 °F /  -1.3 °C 27.9 °F /  -2.3 °C 30.28 in /  1025.3 hPa Calm     93 % 0.00 in /  0 mm
23:55 29.7 °F /  -1.3 °C 27.9 °F /  -2.3 °C 30.28 in /  1025.3 hPa Calm   1.2 mph /  1.9 km/h 93 % 0.00 in /  0 mm
Crab Meadow Weather
Compliments of Weather Underground - 3 mb

Script developed by  Jim McMurry - jmcmurry@mwt.net Adapted for the template by  Wim van der Kuil - Leuven-Template.eu

Temperature: You can tell the temperature by counting the clicks a cricket makes in 15 seconds and adding 37!